sensor_id;sensor_type;location;lat;lon;timestamp;temperature;humidity
67163;DHT22;54092;53.088;8.850;2023-04-29T00:00:01;9.90;99.90
67163;DHT22;54092;53.088;8.850;2023-04-29T00:02:27;9.80;99.90
67163;DHT22;54092;53.088;8.850;2023-04-29T00:04:53;9.80;99.90
67163;DHT22;54092;53.088;8.850;2023-04-29T00:07:18;9.90;99.90
67163;DHT22;54092;53.088;8.850;2023-04-29T00:09:44;9.90;99.90
67163;DHT22;54092;53.088;8.850;2023-04-29T00:12:10;9.80;99.90
67163;DHT22;54092;53.088;8.850;2023-04-29T00:14:35;9.80;99.90
67163;DHT22;54092;53.088;8.850;2023-04-29T00:17:01;9.80;99.90
67163;DHT22;54092;53.088;8.850;2023-04-29T00:19:27;9.80;99.90
67163;DHT22;54092;53.088;8.850;2023-04-29T00:21:53;9.80;99.90
67163;DHT22;54092;53.088;8.850;2023-04-29T00:24:19;9.80;99.90
67163;DHT22;54092;53.088;8.850;2023-04-29T00:26:45;9.80;99.90
67163;DHT22;54092;53.088;8.850;2023-04-29T00:29:10;9.70;99.90
67163;DHT22;54092;53.088;8.850;2023-04-29T00:31:36;9.70;99.90
67163;DHT22;54092;53.088;8.850;2023-04-29T00:34:02;9.80;99.90
67163;DHT22;54092;53.088;8.850;2023-04-29T00:36:28;9.70;99.90
67163;DHT22;54092;53.088;8.850;2023-04-29T00:38:53;9.70;99.90
67163;DHT22;54092;53.088;8.850;2023-04-29T00:41:19;9.70;99.90
67163;DHT22;54092;53.088;8.850;2023-04-29T00:43:45;9.70;99.90
67163;DHT22;54092;53.088;8.850;2023-04-29T00:46:10;9.70;99.90
67163;DHT22;54092;53.088;8.850;2023-04-29T00:48:36;9.70;99.90
67163;DHT22;54092;53.088;8.850;2023-04-29T00:51:02;9.60;99.90
67163;DHT22;54092;53.088;8.850;2023-04-29T00:53:30;9.60;99.90
67163;DHT22;54092;53.088;8.850;2023-04-29T00:55:56;9.60;99.90
67163;DHT22;54092;53.088;8.850;2023-04-29T00:58:21;9.60;99.90
67163;DHT22;54092;53.088;8.850;2023-04-29T01:00:48;9.50;99.90
67163;DHT22;54092;53.088;8.850;2023-04-29T01:03:14;9.50;99.90
67163;DHT22;54092;53.088;8.850;2023-04-29T01:05:40;9.50;99.90
67163;DHT22;54092;53.088;8.850;2023-04-29T01:08:23;9.50;99.90
67163;DHT22;54092;53.088;8.850;2023-04-29T01:11:04;9.50;99.90
67163;DHT22;54092;53.088;8.850;2023-04-29T01:13:58;9.50;99.90
67163;DHT22;54092;53.088;8.850;2023-04-29T01:16:42;9.50;99.90
67163;DHT22;54092;53.088;8.850;2023-04-29T01:19:20;9.50;99.90
67163;DHT22;54092;53.088;8.850;2023-04-29T01:21:53;9.50;99.90
67163;DHT22;54092;53.088;8.850;2023-04-29T01:24:18;9.50;99.90
67163;DHT22;54092;53.088;8.850;2023-04-29T01:26:50;9.40;99.90
67163;DHT22;54092;53.088;8.850;2023-04-29T01:29:38;9.40;99.90
67163;DHT22;54092;53.088;8.850;2023-04-29T01:32:07;9.40;99.90
67163;DHT22;54092;53.088;8.850;2023-04-29T01:34:48;9.40;99.90
67163;DHT22;54092;53.088;8.850;2023-04-29T01:37:32;9.40;99.90
67163;DHT22;54092;53.088;8.850;2023-04-29T01:40:11;9.40;99.90
67163;DHT22;54092;53.088;8.850;2023-04-29T01:42:45;9.30;99.90
67163;DHT22;54092;53.088;8.850;2023-04-29T01:45:15;9.40;99.90
67163;DHT22;54092;53.088;8.850;2023-04-29T01:47:46;9.40;99.90
67163;DHT22;54092;53.088;8.850;2023-04-29T01:50:11;9.30;99.90
67163;DHT22;54092;53.088;8.850;2023-04-29T01:52:37;9.30;99.90
67163;DHT22;54092;53.088;8.850;2023-04-29T01:55:03;9.30;99.90
67163;DHT22;54092;53.088;8.850;2023-04-29T01:57:29;9.30;99.90
67163;DHT22;54092;53.088;8.850;2023-04-29T01:59:54;9.30;99.90
67163;DHT22;54092;53.088;8.850;2023-04-29T02:02:21;9.30;99.90
67163;DHT22;54092;53.088;8.850;2023-04-29T02:04:48;9.20;99.90
67163;DHT22;54092;53.088;8.850;2023-04-29T02:07:15;9.20;99.90
67163;DHT22;54092;53.088;8.850;2023-04-29T02:09:40;9.20;99.90
67163;DHT22;54092;53.088;8.850;2023-04-29T02:12:06;9.20;99.90
67163;DHT22;54092;53.088;8.850;2023-04-29T02:14:32;9.20;99.90
67163;DHT22;54092;53.088;8.850;2023-04-29T02:16:58;9.20;99.90
67163;DHT22;54092;53.088;8.850;2023-04-29T02:19:24;9.20;99.90
67163;DHT22;54092;53.088;8.850;2023-04-29T02:21:50;9.20;99.90
67163;DHT22;54092;53.088;8.850;2023-04-29T02:24:15;9.20;99.90
67163;DHT22;54092;53.088;8.850;2023-04-29T02:26:41;9.20;99.90
67163;DHT22;54092;53.088;8.850;2023-04-29T02:29:07;9.10;99.90
67163;DHT22;54092;53.088;8.850;2023-04-29T02:31:33;9.10;99.90
67163;DHT22;54092;53.088;8.850;2023-04-29T02:33:58;9.10;99.90
67163;DHT22;54092;53.088;8.850;2023-04-29T02:36:24;9.10;99.90
67163;DHT22;54092;53.088;8.850;2023-04-29T02:38:51;9.10;99.90
67163;DHT22;54092;53.088;8.850;2023-04-29T02:41:19;9.10;99.90
67163;DHT22;54092;53.088;8.850;2023-04-29T02:43:45;9.10;99.90
67163;DHT22;54092;53.088;8.850;2023-04-29T02:46:11;9.00;99.90
67163;DHT22;54092;53.088;8.850;2023-04-29T02:48:36;9.00;99.90
67163;DHT22;54092;53.088;8.850;2023-04-29T02:51:02;9.00;99.90
67163;DHT22;54092;53.088;8.850;2023-04-29T02:53:27;9.00;99.90
67163;DHT22;54092;53.088;8.850;2023-04-29T02:55:53;9.00;99.90
67163;DHT22;54092;53.088;8.850;2023-04-29T02:58:18;8.90;99.90
67163;DHT22;54092;53.088;8.850;2023-04-29T03:00:44;8.90;99.90
67163;DHT22;54092;53.088;8.850;2023-04-29T03:03:10;8.90;99.90
67163;DHT22;54092;53.088;8.850;2023-04-29T03:05:35;8.90;99.90
67163;DHT22;54092;53.088;8.850;2023-04-29T03:08:01;8.90;99.90
67163;DHT22;54092;53.088;8.850;2023-04-29T03:10:29;8.90;99.90
67163;DHT22;54092;53.088;8.850;2023-04-29T03:12:54;8.90;99.90
67163;DHT22;54092;53.088;8.850;2023-04-29T03:15:20;8.90;99.90
67163;DHT22;54092;53.088;8.850;2023-04-29T03:17:46;8.90;99.90
67163;DHT22;54092;53.088;8.850;2023-04-29T03:20:11;8.90;99.90
67163;DHT22;54092;53.088;8.850;2023-04-29T03:22:37;8.90;99.90
67163;DHT22;54092;53.088;8.850;2023-04-29T03:25:03;8.80;99.90
67163;DHT22;54092;53.088;8.850;2023-04-29T03:27:29;8.80;99.90
67163;DHT22;54092;53.088;8.850;2023-04-29T03:29:55;8.80;99.90
67163;DHT22;54092;53.088;8.850;2023-04-29T03:32:21;8.90;99.90
67163;DHT22;54092;53.088;8.850;2023-04-29T03:34:46;8.90;99.90
67163;DHT22;54092;53.088;8.850;2023-04-29T03:37:13;8.90;99.90
67163;DHT22;54092;53.088;8.850;2023-04-29T03:39:40;8.80;99.90
67163;DHT22;54092;53.088;8.850;2023-04-29T03:42:06;8.80;99.90
67163;DHT22;54092;53.088;8.850;2023-04-29T03:44:32;8.80;99.90
67163;DHT22;54092;53.088;8.850;2023-04-29T03:46:57;8.80;99.90
67163;DHT22;54092;53.088;8.850;2023-04-29T03:49:23;8.80;99.90
67163;DHT22;54092;53.088;8.850;2023-04-29T03:51:49;8.80;99.90
67163;DHT22;54092;53.088;8.850;2023-04-29T03:54:15;8.80;99.90
67163;DHT22;54092;53.088;8.850;2023-04-29T03:56:41;8.80;99.90
67163;DHT22;54092;53.088;8.850;2023-04-29T03:59:07;8.80;99.90
67163;DHT22;54092;53.088;8.850;2023-04-29T04:01:33;8.80;99.90
67163;DHT22;54092;53.088;8.850;2023-04-29T04:03:58;8.80;99.90
67163;DHT22;54092;53.088;8.850;2023-04-29T04:06:24;8.80;99.90
67163;DHT22;54092;53.088;8.850;2023-04-29T04:08:50;8.70;99.90
67163;DHT22;54092;53.088;8.850;2023-04-29T04:11:16;8.70;99.90
67163;DHT22;54092;53.088;8.850;2023-04-29T04:13:41;8.70;99.90
67163;DHT22;54092;53.088;8.850;2023-04-29T04:16:10;8.70;99.90
67163;DHT22;54092;53.088;8.850;2023-04-29T04:18:37;8.70;99.90
67163;DHT22;54092;53.088;8.850;2023-04-29T04:21:10;8.70;99.90
67163;DHT22;54092;53.088;8.850;2023-04-29T04:23:36;8.70;99.90
67163;DHT22;54092;53.088;8.850;2023-04-29T04:26:04;8.70;99.90
67163;DHT22;54092;53.088;8.850;2023-04-29T04:28:30;8.70;99.90
67163;DHT22;54092;53.088;8.850;2023-04-29T04:30:55;8.70;99.90
67163;DHT22;54092;53.088;8.850;2023-04-29T04:33:21;8.70;99.90
67163;DHT22;54092;53.088;8.850;2023-04-29T04:35:47;8.70;99.90
67163;DHT22;54092;53.088;8.850;2023-04-29T04:38:12;8.70;99.90
67163;DHT22;54092;53.088;8.850;2023-04-29T04:40:42;8.70;99.90
67163;DHT22;54092;53.088;8.850;2023-04-29T04:43:07;8.70;99.90
67163;DHT22;54092;53.088;8.850;2023-04-29T04:45:33;8.70;99.90
67163;DHT22;54092;53.088;8.850;2023-04-29T04:47:58;8.70;99.90
67163;DHT22;54092;53.088;8.850;2023-04-29T04:50:27;8.80;99.90
67163;DHT22;54092;53.088;8.850;2023-04-29T04:52:54;8.70;99.90
67163;DHT22;54092;53.088;8.850;2023-04-29T04:55:20;8.70;99.90
67163;DHT22;54092;53.088;8.850;2023-04-29T04:57:45;8.80;99.90
67163;DHT22;54092;53.088;8.850;2023-04-29T05:00:11;8.80;99.90
67163;DHT22;54092;53.088;8.850;2023-04-29T05:02:37;8.80;99.90
67163;DHT22;54092;53.088;8.850;2023-04-29T05:05:02;8.80;99.90
67163;DHT22;54092;53.088;8.850;2023-04-29T05:07:28;8.80;99.90
67163;DHT22;54092;53.088;8.850;2023-04-29T05:09:53;8.80;99.90
67163;DHT22;54092;53.088;8.850;2023-04-29T05:12:19;8.90;99.90
67163;DHT22;54092;53.088;8.850;2023-04-29T05:14:44;8.90;99.90
67163;DHT22;54092;53.088;8.850;2023-04-29T05:17:10;8.90;99.90
67163;DHT22;54092;53.088;8.850;2023-04-29T05:19:35;8.90;99.90
67163;DHT22;54092;53.088;8.850;2023-04-29T05:22:01;9.00;99.90
67163;DHT22;54092;53.088;8.850;2023-04-29T05:24:26;9.00;99.90
67163;DHT22;54092;53.088;8.850;2023-04-29T05:26:54;9.00;99.90
67163;DHT22;54092;53.088;8.850;2023-04-29T05:29:19;9.00;99.90
67163;DHT22;54092;53.088;8.850;2023-04-29T05:31:45;9.00;99.90
67163;DHT22;54092;53.088;8.850;2023-04-29T05:34:10;9.00;99.90
67163;DHT22;54092;53.088;8.850;2023-04-29T05:36:36;9.10;99.90
67163;DHT22;54092;53.088;8.850;2023-04-29T05:39:02;9.10;99.90
67163;DHT22;54092;53.088;8.850;2023-04-29T05:41:27;9.10;99.90
67163;DHT22;54092;53.088;8.850;2023-04-29T05:43:53;9.10;99.90
67163;DHT22;54092;53.088;8.850;2023-04-29T05:46:18;9.10;99.90
67163;DHT22;54092;53.088;8.850;2023-04-29T05:48:44;9.20;99.90
67163;DHT22;54092;53.088;8.850;2023-04-29T05:51:11;9.20;99.90
67163;DHT22;54092;53.088;8.850;2023-04-29T05:53:37;9.20;99.90
67163;DHT22;54092;53.088;8.850;2023-04-29T05:56:03;9.20;99.90
67163;DHT22;54092;53.088;8.850;2023-04-29T05:58:33;9.20;99.90
67163;DHT22;54092;53.088;8.850;2023-04-29T06:00:58;9.30;99.90
67163;DHT22;54092;53.088;8.850;2023-04-29T06:03:24;9.30;99.90
67163;DHT22;54092;53.088;8.850;2023-04-29T06:05:50;9.30;99.90
67163;DHT22;54092;53.088;8.850;2023-04-29T06:08:15;9.30;99.90
67163;DHT22;54092;53.088;8.850;2023-04-29T06:10:41;9.40;99.90
67163;DHT22;54092;53.088;8.850;2023-04-29T06:13:06;9.30;99.90
67163;DHT22;54092;53.088;8.850;2023-04-29T06:15:32;9.40;99.90
67163;DHT22;54092;53.088;8.850;2023-04-29T06:17:57;9.40;99.90
67163;DHT22;54092;53.088;8.850;2023-04-29T06:20:23;9.50;99.90
67163;DHT22;54092;53.088;8.850;2023-04-29T06:22:48;9.50;99.90
67163;DHT22;54092;53.088;8.850;2023-04-29T06:25:14;9.50;99.90
67163;DHT22;54092;53.088;8.850;2023-04-29T06:27:40;9.50;99.90
67163;DHT22;54092;53.088;8.850;2023-04-29T06:30:07;9.50;99.90
67163;DHT22;54092;53.088;8.850;2023-04-29T06:32:32;9.60;99.90
67163;DHT22;54092;53.088;8.850;2023-04-29T06:34:58;9.70;99.90
67163;DHT22;54092;53.088;8.850;2023-04-29T06:37:23;9.70;99.90
67163;DHT22;54092;53.088;8.850;2023-04-29T06:39:49;9.80;99.90
67163;DHT22;54092;53.088;8.850;2023-04-29T06:42:14;9.80;99.90
67163;DHT22;54092;53.088;8.850;2023-04-29T06:44:40;9.80;99.90
67163;DHT22;54092;53.088;8.850;2023-04-29T06:47:05;9.80;99.90
67163;DHT22;54092;53.088;8.850;2023-04-29T06:49:31;9.90;99.90
67163;DHT22;54092;53.088;8.850;2023-04-29T06:51:57;9.90;99.90
67163;DHT22;54092;53.088;8.850;2023-04-29T06:54:23;10.00;99.90
67163;DHT22;54092;53.088;8.850;2023-04-29T06:56:49;10.00;99.90
67163;DHT22;54092;53.088;8.850;2023-04-29T06:59:15;10.10;99.90
67163;DHT22;54092;53.088;8.850;2023-04-29T07:01:41;10.10;99.90
67163;DHT22;54092;53.088;8.850;2023-04-29T07:04:06;10.20;99.90
67163;DHT22;54092;53.088;8.850;2023-04-29T07:06:32;10.30;99.90
67163;DHT22;54092;53.088;8.850;2023-04-29T07:08:57;10.20;99.90
67163;DHT22;54092;53.088;8.850;2023-04-29T07:11:23;10.20;99.90
67163;DHT22;54092;53.088;8.850;2023-04-29T07:13:52;10.20;99.90
67163;DHT22;54092;53.088;8.850;2023-04-29T07:16:18;10.30;99.90
67163;DHT22;54092;53.088;8.850;2023-04-29T07:18:46;10.40;99.90
67163;DHT22;54092;53.088;8.850;2023-04-29T07:21:11;10.50;99.90
67163;DHT22;54092;53.088;8.850;2023-04-29T07:23:37;10.60;99.90
67163;DHT22;54092;53.088;8.850;2023-04-29T07:26:13;10.50;99.90
67163;DHT22;54092;53.088;8.850;2023-04-29T07:28:40;10.50;99.90
67163;DHT22;54092;53.088;8.850;2023-04-29T07:31:06;10.60;99.90
67163;DHT22;54092;53.088;8.850;2023-04-29T07:33:32;10.70;99.90
67163;DHT22;54092;53.088;8.850;2023-04-29T07:35:58;10.80;99.90
67163;DHT22;54092;53.088;8.850;2023-04-29T07:38:24;10.80;99.90
67163;DHT22;54092;53.088;8.850;2023-04-29T07:40:49;11.00;99.90
67163;DHT22;54092;53.088;8.850;2023-04-29T07:43:15;11.10;99.90
67163;DHT22;54092;53.088;8.850;2023-04-29T07:45:40;11.30;99.90
67163;DHT22;54092;53.088;8.850;2023-04-29T07:48:06;11.50;99.90
67163;DHT22;54092;53.088;8.850;2023-04-29T07:50:35;11.70;99.90
67163;DHT22;54092;53.088;8.850;2023-04-29T07:53:01;11.90;99.90
67163;DHT22;54092;53.088;8.850;2023-04-29T07:55:27;12.00;99.90
67163;DHT22;54092;53.088;8.850;2023-04-29T07:57:55;12.20;99.90
67163;DHT22;54092;53.088;8.850;2023-04-29T08:00:21;12.10;99.90
67163;DHT22;54092;53.088;8.850;2023-04-29T08:02:54;12.30;99.90
67163;DHT22;54092;53.088;8.850;2023-04-29T08:05:21;12.20;99.90
67163;DHT22;54092;53.088;8.850;2023-04-29T08:07:47;12.30;99.90
67163;DHT22;54092;53.088;8.850;2023-04-29T08:10:13;12.20;99.90
67163;DHT22;54092;53.088;8.850;2023-04-29T08:12:39;12.20;99.90
67163;DHT22;54092;53.088;8.850;2023-04-29T08:15:05;12.30;99.90
67163;DHT22;54092;53.088;8.850;2023-04-29T08:17:30;12.40;99.90
67163;DHT22;54092;53.088;8.850;2023-04-29T08:19:56;12.50;99.90
67163;DHT22;54092;53.088;8.850;2023-04-29T08:22:21;12.50;99.90
67163;DHT22;54092;53.088;8.850;2023-04-29T08:24:47;12.60;99.90
67163;DHT22;54092;53.088;8.850;2023-04-29T08:27:13;12.80;99.90
67163;DHT22;54092;53.088;8.850;2023-04-29T08:29:40;13.00;99.90
67163;DHT22;54092;53.088;8.850;2023-04-29T08:32:06;13.20;99.90
67163;DHT22;54092;53.088;8.850;2023-04-29T08:34:31;13.10;99.90
67163;DHT22;54092;53.088;8.850;2023-04-29T08:36:58;13.20;99.90
67163;DHT22;54092;53.088;8.850;2023-04-29T08:39:23;13.30;99.90
67163;DHT22;54092;53.088;8.850;2023-04-29T08:41:50;13.40;99.90
67163;DHT22;54092;53.088;8.850;2023-04-29T08:44:16;13.30;99.90
67163;DHT22;54092;53.088;8.850;2023-04-29T08:46:45;13.70;99.90
67163;DHT22;54092;53.088;8.850;2023-04-29T08:49:11;13.90;99.90
67163;DHT22;54092;53.088;8.850;2023-04-29T08:51:37;13.90;99.90
67163;DHT22;54092;53.088;8.850;2023-04-29T08:54:03;14.00;99.90
67163;DHT22;54092;53.088;8.850;2023-04-29T08:56:30;14.20;99.90
67163;DHT22;54092;53.088;8.850;2023-04-29T08:58:56;14.60;99.90
67163;DHT22;54092;53.088;8.850;2023-04-29T09:01:26;15.00;99.90
67163;DHT22;54092;53.088;8.850;2023-04-29T09:04:08;15.20;99.90
67163;DHT22;54092;53.088;8.850;2023-04-29T09:06:36;15.60;99.90
67163;DHT22;54092;53.088;8.850;2023-04-29T09:09:02;15.70;99.90
67163;DHT22;54092;53.088;8.850;2023-04-29T09:11:29;16.20;99.90
67163;DHT22;54092;53.088;8.850;2023-04-29T09:14:02;16.50;99.90
67163;DHT22;54092;53.088;8.850;2023-04-29T09:16:28;17.00;99.90
67163;DHT22;54092;53.088;8.850;2023-04-29T09:18:54;17.70;99.90
67163;DHT22;54092;53.088;8.850;2023-04-29T09:21:27;18.20;99.90
67163;DHT22;54092;53.088;8.850;2023-04-29T09:23:55;18.60;99.90
67163;DHT22;54092;53.088;8.850;2023-04-29T09:26:22;18.80;99.90
67163;DHT22;54092;53.088;8.850;2023-04-29T09:29:09;19.20;99.90
67163;DHT22;54092;53.088;8.850;2023-04-29T09:31:39;18.80;99.90
67163;DHT22;54092;53.088;8.850;2023-04-29T09:34:05;18.10;99.90
67163;DHT22;54092;53.088;8.850;2023-04-29T09:36:47;18.40;99.90
67163;DHT22;54092;53.088;8.850;2023-04-29T09:39:15;18.70;99.90
67163;DHT22;54092;53.088;8.850;2023-04-29T09:41:57;18.60;99.90
67163;DHT22;54092;53.088;8.850;2023-04-29T09:44:32;19.30;99.90
67163;DHT22;54092;53.088;8.850;2023-04-29T09:47:05;19.30;99.90
67163;DHT22;54092;53.088;8.850;2023-04-29T09:49:34;20.00;99.90
67163;DHT22;54092;53.088;8.850;2023-04-29T09:52:06;20.70;99.90
67163;DHT22;54092;53.088;8.850;2023-04-29T09:54:33;20.50;99.90
67163;DHT22;54092;53.088;8.850;2023-04-29T09:57:01;20.20;99.90
67163;DHT22;54092;53.088;8.850;2023-04-29T09:59:30;20.20;99.90
67163;DHT22;54092;53.088;8.850;2023-04-29T10:01:57;20.40;99.90
67163;DHT22;54092;53.088;8.850;2023-04-29T10:04:26;20.50;99.90
67163;DHT22;54092;53.088;8.850;2023-04-29T10:06:53;20.50;99.90
67163;DHT22;54092;53.088;8.850;2023-04-29T10:09:21;20.90;99.90
67163;DHT22;54092;53.088;8.850;2023-04-29T10:11:51;21.50;99.90
67163;DHT22;54092;53.088;8.850;2023-04-29T10:14:19;21.50;99.90
67163;DHT22;54092;53.088;8.850;2023-04-29T10:16:50;20.70;99.90
67163;DHT22;54092;53.088;8.850;2023-04-29T10:19:25;19.30;99.90
67163;DHT22;54092;53.088;8.850;2023-04-29T10:21:54;18.80;99.90
67163;DHT22;54092;53.088;8.850;2023-04-29T10:24:24;18.00;99.90
67163;DHT22;54092;53.088;8.850;2023-04-29T10:26:51;16.70;99.90
67163;DHT22;54092;53.088;8.850;2023-04-29T10:29:18;17.10;99.90
67163;DHT22;54092;53.088;8.850;2023-04-29T10:31:45;17.40;99.90
67163;DHT22;54092;53.088;8.850;2023-04-29T10:34:13;16.60;99.90
67163;DHT22;54092;53.088;8.850;2023-04-29T10:36:40;16.10;99.90
67163;DHT22;54092;53.088;8.850;2023-04-29T10:39:10;17.50;99.90
67163;DHT22;54092;53.088;8.850;2023-04-29T10:41:43;18.30;99.90
67163;DHT22;54092;53.088;8.850;2023-04-29T10:44:12;18.40;99.90
67163;DHT22;54092;53.088;8.850;2023-04-29T10:46:38;18.40;99.90
67163;DHT22;54092;53.088;8.850;2023-04-29T10:49:05;19.10;99.90
67163;DHT22;54092;53.088;8.850;2023-04-29T10:54:08;19.20;99.90
67163;DHT22;54092;53.088;8.850;2023-04-29T10:59:02;19.10;99.90
67163;DHT22;54092;53.088;8.850;2023-04-29T11:01:54;19.80;99.90
67163;DHT22;54092;53.088;8.850;2023-04-29T11:04:21;20.50;99.90
67163;DHT22;54092;53.088;8.850;2023-04-29T11:06:51;20.90;99.90
67163;DHT22;54092;53.088;8.850;2023-04-29T11:09:27;20.90;99.90
67163;DHT22;54092;53.088;8.850;2023-04-29T11:12:03;20.30;99.90
67163;DHT22;54092;53.088;8.850;2023-04-29T11:14:33;19.70;99.90
67163;DHT22;54092;53.088;8.850;2023-04-29T11:17:12;20.60;99.90
67163;DHT22;54092;53.088;8.850;2023-04-29T11:19:41;21.60;99.90
67163;DHT22;54092;53.088;8.850;2023-04-29T11:22:32;20.30;99.90
67163;DHT22;54092;53.088;8.850;2023-04-29T11:25:03;18.40;99.90
67163;DHT22;54092;53.088;8.850;2023-04-29T11:27:31;18.30;99.90
67163;DHT22;54092;53.088;8.850;2023-04-29T11:29:58;19.80;99.90
67163;DHT22;54092;53.088;8.850;2023-04-29T11:32:28;19.90;99.90
67163;DHT22;54092;53.088;8.850;2023-04-29T11:34:55;20.10;99.90
67163;DHT22;54092;53.088;8.850;2023-04-29T11:37:31;21.10;99.90
67163;DHT22;54092;53.088;8.850;2023-04-29T11:39:59;21.10;99.90
67163;DHT22;54092;53.088;8.850;2023-04-29T11:42:25;19.50;99.90
67163;DHT22;54092;53.088;8.850;2023-04-29T11:44:54;19.50;99.90
67163;DHT22;54092;53.088;8.850;2023-04-29T11:47:28;20.20;99.90
67163;DHT22;54092;53.088;8.850;2023-04-29T11:50:05;20.70;99.90
67163;DHT22;54092;53.088;8.850;2023-04-29T11:52:33;21.30;99.90
67163;DHT22;54092;53.088;8.850;2023-04-29T11:54:59;21.70;99.90
67163;DHT22;54092;53.088;8.850;2023-04-29T11:57:25;21.70;99.90
67163;DHT22;54092;53.088;8.850;2023-04-29T11:59:51;21.90;99.90
67163;DHT22;54092;53.088;8.850;2023-04-29T12:02:21;21.50;99.90
67163;DHT22;54092;53.088;8.850;2023-04-29T12:04:46;21.00;99.90
67163;DHT22;54092;53.088;8.850;2023-04-29T12:07:15;20.70;99.90
67163;DHT22;54092;53.088;8.850;2023-04-29T12:09:42;19.70;99.90
67163;DHT22;54092;53.088;8.850;2023-04-29T12:12:09;19.60;99.90
67163;DHT22;54092;53.088;8.850;2023-04-29T12:14:34;20.10;99.90
67163;DHT22;54092;53.088;8.850;2023-04-29T12:17:00;19.30;99.90
67163;DHT22;54092;53.088;8.850;2023-04-29T12:19:26;18.30;99.90
67163;DHT22;54092;53.088;8.850;2023-04-29T12:21:51;18.10;99.90
67163;DHT22;54092;53.088;8.850;2023-04-29T12:24:19;18.20;99.90
67163;DHT22;54092;53.088;8.850;2023-04-29T12:26:45;18.00;99.90
67163;DHT22;54092;53.088;8.850;2023-04-29T12:29:12;17.40;99.90
67163;DHT22;54092;53.088;8.850;2023-04-29T12:31:37;17.70;99.90
67163;DHT22;54092;53.088;8.850;2023-04-29T12:34:03;17.50;99.90
67163;DHT22;54092;53.088;8.850;2023-04-29T12:36:30;17.30;99.90
67163;DHT22;54092;53.088;8.850;2023-04-29T12:38:55;17.10;99.90
67163;DHT22;54092;53.088;8.850;2023-04-29T12:41:58;17.00;99.90
67163;DHT22;54092;53.088;8.850;2023-04-29T12:44:25;16.30;99.90
67163;DHT22;54092;53.088;8.850;2023-04-29T12:46:51;16.20;99.90
67163;DHT22;54092;53.088;8.850;2023-04-29T12:49:22;16.30;99.90
67163;DHT22;54092;53.088;8.850;2023-04-29T12:51:48;16.50;99.90
67163;DHT22;54092;53.088;8.850;2023-04-29T12:54:14;16.80;99.90
67163;DHT22;54092;53.088;8.850;2023-04-29T12:56:40;16.80;99.90
67163;DHT22;54092;53.088;8.850;2023-04-29T12:59:06;16.60;99.90
67163;DHT22;54092;53.088;8.850;2023-04-29T13:01:32;16.60;99.90
67163;DHT22;54092;53.088;8.850;2023-04-29T13:03:57;16.40;99.90
67163;DHT22;54092;53.088;8.850;2023-04-29T13:06:23;16.30;99.90
67163;DHT22;54092;53.088;8.850;2023-04-29T13:08:48;16.30;99.90
67163;DHT22;54092;53.088;8.850;2023-04-29T13:11:15;16.40;99.90
67163;DHT22;54092;53.088;8.850;2023-04-29T13:13:41;16.20;99.90
67163;DHT22;54092;53.088;8.850;2023-04-29T13:16:07;15.90;99.90
67163;DHT22;54092;53.088;8.850;2023-04-29T13:18:32;15.80;99.90
67163;DHT22;54092;53.088;8.850;2023-04-29T13:20:58;15.70;99.90
67163;DHT22;54092;53.088;8.850;2023-04-29T13:23:23;15.50;99.90
67163;DHT22;54092;53.088;8.850;2023-04-29T13:25:49;15.50;99.90
67163;DHT22;54092;53.088;8.850;2023-04-29T13:28:15;15.50;99.90
67163;DHT22;54092;53.088;8.850;2023-04-29T13:30:41;15.60;99.90
67163;DHT22;54092;53.088;8.850;2023-04-29T13:33:07;15.50;99.90
67163;DHT22;54092;53.088;8.850;2023-04-29T13:35:32;15.50;99.90
67163;DHT22;54092;53.088;8.850;2023-04-29T13:38:00;15.50;99.90
67163;DHT22;54092;53.088;8.850;2023-04-29T13:40:26;15.70;99.90
67163;DHT22;54092;53.088;8.850;2023-04-29T13:42:51;16.30;99.90
67163;DHT22;54092;53.088;8.850;2023-04-29T13:45:17;16.80;99.90
67163;DHT22;54092;53.088;8.850;2023-04-29T13:47:42;17.00;99.90
67163;DHT22;54092;53.088;8.850;2023-04-29T13:50:09;16.60;99.90
67163;DHT22;54092;53.088;8.850;2023-04-29T13:52:34;16.40;99.90
67163;DHT22;54092;53.088;8.850;2023-04-29T13:55:00;16.10;99.90
67163;DHT22;54092;53.088;8.850;2023-04-29T13:57:25;16.00;99.90
67163;DHT22;54092;53.088;8.850;2023-04-29T13:59:52;15.90;99.90
67163;DHT22;54092;53.088;8.850;2023-04-29T14:02:19;15.90;99.90
67163;DHT22;54092;53.088;8.850;2023-04-29T14:04:45;15.60;99.90
67163;DHT22;54092;53.088;8.850;2023-04-29T14:07:12;15.40;99.90
67163;DHT22;54092;53.088;8.850;2023-04-29T14:09:37;15.40;99.90
67163;DHT22;54092;53.088;8.850;2023-04-29T14:12:04;15.10;99.90
67163;DHT22;54092;53.088;8.850;2023-04-29T14:14:30;15.20;99.90
67163;DHT22;54092;53.088;8.850;2023-04-29T14:16:55;15.20;99.90
67163;DHT22;54092;53.088;8.850;2023-04-29T14:19:21;15.10;99.90
67163;DHT22;54092;53.088;8.850;2023-04-29T14:21:46;14.90;99.90
67163;DHT22;54092;53.088;8.850;2023-04-29T14:24:12;14.90;99.90
67163;DHT22;54092;53.088;8.850;2023-04-29T14:26:37;15.00;99.90
67163;DHT22;54092;53.088;8.850;2023-04-29T14:29:03;15.10;99.90
67163;DHT22;54092;53.088;8.850;2023-04-29T14:31:32;15.00;99.90
67163;DHT22;54092;53.088;8.850;2023-04-29T14:33:59;14.90;99.90
67163;DHT22;54092;53.088;8.850;2023-04-29T14:36:25;14.90;99.90
67163;DHT22;54092;53.088;8.850;2023-04-29T14:38:52;14.80;99.90
67163;DHT22;54092;53.088;8.850;2023-04-29T14:41:18;14.80;99.90
67163;DHT22;54092;53.088;8.850;2023-04-29T14:43:45;14.80;99.90
67163;DHT22;54092;53.088;8.850;2023-04-29T14:46:11;14.70;99.90
67163;DHT22;54092;53.088;8.850;2023-04-29T14:48:36;14.70;99.90
67163;DHT22;54092;53.088;8.850;2023-04-29T14:51:02;14.70;99.90
67163;DHT22;54092;53.088;8.850;2023-04-29T14:53:27;14.80;99.90
67163;DHT22;54092;53.088;8.850;2023-04-29T14:55:53;14.90;99.90
67163;DHT22;54092;53.088;8.850;2023-04-29T14:58:18;14.90;99.90
67163;DHT22;54092;53.088;8.850;2023-04-29T15:00:45;15.00;99.90
67163;DHT22;54092;53.088;8.850;2023-04-29T15:03:10;15.00;99.90
67163;DHT22;54092;53.088;8.850;2023-04-29T15:05:36;14.80;99.90
67163;DHT22;54092;53.088;8.850;2023-04-29T15:08:02;15.00;99.90
67163;DHT22;54092;53.088;8.850;2023-04-29T15:10:27;15.00;99.90
67163;DHT22;54092;53.088;8.850;2023-04-29T15:12:53;14.80;99.90
67163;DHT22;54092;53.088;8.850;2023-04-29T15:15:19;14.90;99.90
67163;DHT22;54092;53.088;8.850;2023-04-29T15:17:45;15.10;99.90
67163;DHT22;54092;53.088;8.850;2023-04-29T15:20:11;15.00;99.90
67163;DHT22;54092;53.088;8.850;2023-04-29T15:22:37;14.90;99.90
67163;DHT22;54092;53.088;8.850;2023-04-29T15:25:03;14.60;99.90
67163;DHT22;54092;53.088;8.850;2023-04-29T15:27:28;14.50;99.90
67163;DHT22;54092;53.088;8.850;2023-04-29T15:29:54;14.40;99.90
67163;DHT22;54092;53.088;8.850;2023-04-29T15:32:23;14.30;99.90
67163;DHT22;54092;53.088;8.850;2023-04-29T15:34:59;14.40;99.90
67163;DHT22;54092;53.088;8.850;2023-04-29T15:37:25;14.20;99.90
67163;DHT22;54092;53.088;8.850;2023-04-29T15:39:52;14.10;99.90
67163;DHT22;54092;53.088;8.850;2023-04-29T15:42:18;14.20;99.90